Skip Navigation

Christman Field Latest Observations

Switch to english unitsOther observation timesWeekly graphs

Date Time
MST
Temp
°C
RH
%
DewPt
°C
Wind
m/s
Dir
°
Gust
m/s
Dir
°
Press
hPa
Solar
W/m^2
Prec
mm
2024-06-21 23:00 15.1 71.8 10.0 3.2 2 4.0 6 844.67 0.2 0.00
2024-06-21 22:55 15.0 73.4 10.3 1.6 4 2.7 10 844.72 0.2 0.00
2024-06-21 22:50 14.9 72.5 10.0 1.1 314 1.8 304 844.70 0.2 0.00
2024-06-21 22:45 14.9 74.1 10.3 1.9 305 2.4 318 844.78 0.2 0.00
2024-06-21 22:40 14.8 73.6 10.2 2.5 322 3.0 317 844.87 0.2 0.00
2024-06-21 22:35 15.0 73.2 10.3 2.7 308 3.1 326 844.89 0.2 0.00
2024-06-21 22:30 15.4 71.3 10.3 2.4 321 2.9 339 844.91 0.2 0.00
2024-06-21 22:25 15.8 67.8 9.9 2.0 324 2.9 352 844.95 0.2 0.00
2024-06-21 22:20 15.5 68.3 9.7 1.3 356 2.1 0 844.98 0.2 0.00
2024-06-21 22:15 15.1 72.0 10.1 1.5 90 3.3 10 844.96 0.2 0.00
2024-06-21 22:10 15.1 72.3 10.2 3.7 8 4.3 343 844.95 0.2 0.00
2024-06-21 22:05 15.5 71.4 10.3 3.0 341 3.8 343 845.11 0.2 0.00
2024-06-21 22:00 16.1 68.6 10.3 3.9 356 4.8 342 845.29 0.2 0.00
2024-06-21 21:55 16.3 67.2 10.2 3.9 352 4.9 352 845.30 0.2 0.00
2024-06-21 21:50 16.2 66.6 10.0 3.1 348 3.8 4 845.29 0.2 0.00
2024-06-21 21:45 15.5 68.3 9.7 3.0 6 3.9 2 845.34 0.2 0.00
2024-06-21 21:40 15.7 71.4 10.5 3.1 0 3.9 354 845.47 0.2 0.00
2024-06-21 21:35 16.3 69.3 10.7 3.1 337 4.3 351 845.69 0.2 0.00
2024-06-21 21:30 16.7 65.8 10.3 4.5 345 5.7 349 845.74 0.2 0.00
2024-06-21 21:25 16.8 66.2 10.5 4.6 3 6.0 353 845.54 0.2 0.00
2024-06-21 21:20 16.9 65.9 10.5 4.7 349 6.2 347 845.52 0.2 0.00
2024-06-21 21:15 17.0 65.7 10.5 6.3 343 7.6 326 845.81 0.2 0.00
2024-06-21 21:10 17.3 67.0 11.1 7.1 346 9.8 333 845.89 0.2 0.00
2024-06-21 21:05 17.7 63.6 10.8 7.4 330 9.9 332 846.01 0.2 0.00
2024-06-21 21:00 19.0 61.8 11.5 7.1 315 9.7 319 846.10 0.2 0.00
2024-06-21 20:55 19.9 50.8 9.4 8.2 313 11.0 321 846.05 0.2 0.00
2024-06-21 20:50 20.2 47.0 8.5 8.8 328 11.5 330 845.93 0.1 0.00
2024-06-21 20:45 20.2 46.0 8.2 8.8 318 11.6 310 845.85 0.1 0.00
2024-06-21 20:40 20.2 45.8 8.2 8.9 323 11.8 303 845.73 0.2 0.00
2024-06-21 20:35 20.3 45.6 8.2 8.8 308 12.6 310 845.42 0.1 0.00